Time;durP1;ratioP1;P1;durP2;ratioP2;P2;SDS_P1;SDS_P2;PMS_P1;PMS_P2;Temp;Humidity;BMP_temperature;BMP_pressure;BME280_temperature;BME280_humidity;BME280_pressure;Samples;Min_cycle;Max_cycle;Signal;HPM_P1;HPM_P2
2023/07/01 00:01:05;;;;;;;;;;;;;;;16.89;67.57;100040.16;5033350;28;19923;-84
2023/07/01 00:03:30;;;;;;;;;;;;;;;16.81;68.18;100040.38;5036375;28;19924;-85
2023/07/01 00:05:57;;;;;;;;;;;;;;;16.70;67.46;100037.22;5027730;28;20383;-85
2023/07/01 00:08:22;;;;;;;;;;;;;;;16.67;67.72;100020.81;5026181;28;19928;-84
2023/07/01 00:10:47;;;;;;;;;;;;;;;16.70;67.81;100021.22;5054118;28;19917;-84
2023/07/01 00:13:12;;;;;;;;;;;;;;;16.66;69.17;100020.00;5053596;28;19913;-84
2023/07/01 00:15:37;;;;;;;;;;;;;;;16.54;71.81;100024.25;5050377;28;20290;-84
2023/07/01 00:18:03;;;;;;;;;;;;;;;16.40;71.31;100018.09;5042931;28;19913;-82
2023/07/01 00:20:31;;;;;;;;;;;;;;;16.27;69.08;100018.88;5046567;28;20432;-84
2023/07/01 00:22:56;;;;;;;;;;;;;;;16.22;72.20;100010.66;5066676;28;19928;-85
2023/07/01 00:25:23;;;;;;;;;;;;;;;16.23;71.14;100004.31;5068388;28;19917;-84
2023/07/01 00:27:48;;;;;;;;;;;;;;;16.16;73.43;100007.97;5049881;28;20003;-83
2023/07/01 00:30:13;;;;;;;;;;;;;;;16.01;75.44;100016.13;5047209;28;19913;-83
2023/07/01 00:32:38;;;;;;;;;;;;;;;15.88;74.79;100023.06;5049274;28;19927;-84
2023/07/01 00:35:04;;;;;;;;;;;;;;;15.83;71.52;100014.84;5046564;28;19913;-83
2023/07/01 00:37:30;;;;;;;;;;;;;;;15.85;72.73;100018.13;5041966;28;19984;-84
2023/07/01 00:39:55;;;;;;;;;;;;;;;15.85;73.03;100014.63;5051600;28;19975;-83
2023/07/01 00:42:20;;;;;;;;;;;;;;;15.79;74.53;100008.25;5048472;28;19912;-84
2023/07/01 00:44:46;;;;;;;;;;;;;;;15.72;74.82;100007.41;5046913;28;19928;-84
2023/07/01 00:47:12;;;;;;;;;;;;;;;15.60;75.82;99999.13;5040566;28;19944;-84
2023/07/01 00:49:38;;;;;;;;;;;;;;;15.52;76.35;99996.63;5050403;28;19945;-85
2023/07/01 00:52:03;;;;;;;;;;;;;;;15.44;74.96;100002.09;5058814;28;19959;-84
2023/07/01 00:54:29;;;;;;;;;;;;;;;15.39;77.02;99997.34;5047362;28;19917;-84
2023/07/01 00:56:55;;;;;;;;;;;;;;;15.29;75.63;100003.03;5048523;28;19913;-85
2023/07/01 00:59:20;;;;;;;;;;;;;;;15.26;76.93;99999.97;5069048;28;19930;-84
2023/07/01 01:01:48;;;;;;;;;;;;;;;15.19;79.90;100005.22;5051543;28;19984;-86
2023/07/01 01:04:13;;;;;;;;;;;;;;;15.14;78.64;100001.53;5068003;28;19917;-85
2023/07/01 01:06:46;;;;;;;0.10;0.10;;;;;;;15.13;75.54;99997.19;5040431;28;20004;-83
2023/07/01 01:09:19;;;;;;;0.20;0.20;;;;;;;15.12;75.69;99995.56;5043287;28;20430;-85
2023/07/01 01:11:45;;;;;;;;;;;;;;;15.09;76.85;100004.75;5067433;28;20039;-85
2023/07/01 01:14:12;;;;;;;0.10;0.10;;;;;;;15.07;74.58;99999.63;5045414;28;19913;-84
2023/07/01 01:16:40;;;;;;;0.10;0.10;;;;;;;15.32;75.25;100009.81;5062086;28;20839;-84
2023/07/01 01:19:19;;;;;;;0.10;0.10;;;;;;;15.53;75.58;100000.91;5044433;28;20417;-84
2023/07/01 01:21:52;;;;;;;0.08;0.08;;;;;;;15.70;76.53;100004.94;5055127;28;20417;-84
2023/07/01 01:24:20;;;;;;;0.00;0.00;;;;;;;15.87;76.73;100010.78;5060484;28;20416;-84
2023/07/01 01:26:50;;;;;;;0.10;0.10;;;;;;;16.07;77.03;100005.50;5039763;28;20394;-84
2023/07/01 01:29:15;;;;;;;0.10;0.10;;;;;;;16.00;76.52;100001.16;5044214;28;20274;-84
2023/07/01 01:31:40;;;;;;;0.10;0.10;;;;;;;15.89;76.01;100007.88;5044227;28;20041;-85
2023/07/01 01:34:06;;;;;;;0.10;0.10;;;;;;;15.89;75.33;99999.88;5042620;28;20021;-85
2023/07/01 01:36:45;;;;;;;0.10;0.10;;;;;;;15.84;75.04;99995.16;5045551;28;20029;-84
2023/07/01 01:39:14;;;;;;;0.10;0.10;;;;;;;15.74;74.28;99994.69;5050023;28;20275;-85
2023/07/01 01:41:45;;;;;;;0.10;0.10;;;;;;;15.69;74.56;99997.13;5058993;28;20029;-84
2023/07/01 01:44:14;;;;;;;0.08;0.08;;;;;;;15.66;74.80;99992.16;5067389;28;20116;-86
2023/07/01 01:46:41;;;;;;;0.10;0.10;;;;;;;15.60;76.15;99990.31;5056391;28;20041;-86
2023/07/01 01:49:11;;;;;;;0.10;0.10;;;;;;;15.60;76.03;99982.31;5064613;28;20060;-85
2023/07/01 01:51:39;;;;;;;0.10;0.10;;;;;;;15.61;76.09;99983.94;5056614;28;20049;-84
2023/07/01 01:54:05;;;;;;;;;;;;;;;15.58;77.03;99987.81;5047345;28;20048;-85
2023/07/01 01:56:32;;;;;;;0.10;0.10;;;;;;;15.58;75.50;99987.00;5047548;28;19916;-85
2023/07/01 01:58:57;;;;;;;0.10;0.10;;;;;;;15.57;75.25;99972.88;5048355;28;20096;-85
2023/07/01 02:01:22;;;;;;;0.10;0.10;;;;;;;15.54;76.22;99973.28;5066210;28;20071;-86
2023/07/01 02:03:47;;;;;;;0.10;0.10;;;;;;;15.53;75.15;99978.78;5047974;28;20037;-83
2023/07/01 02:06:13;;;;;;;0.10;0.10;;;;;;;15.54;74.86;99975.09;5046634;28;20036;-84
2023/07/01 02:08:39;;;;;;;0.10;0.10;;;;;;;15.46;76.42;99976.91;5061943;28;20033;-83
2023/07/01 02:11:04;;;;;;;0.10;0.10;;;;;;;15.43;76.20;99971.97;5052988;28;20031;-84
2023/07/01 02:13:29;;;;;;;;;;;;;;;15.36;76.96;99968.44;5059440;28;20040;-84
2023/07/01 02:15:54;;;;;;;0.10;0.10;;;;;;;15.34;75.80;99967.00;5045311;28;20408;-85
2023/07/01 02:18:20;;;;;;;0.13;0.13;;;;;;;15.28;76.04;99963.28;5045985;28;20041;-82
2023/07/01 02:20:45;;;;;;;0.10;0.10;;;;;;;15.24;76.33;99962.84;5035948;28;20029;-84
2023/07/01 02:23:10;;;;;;;0.10;0.10;;;;;;;15.18;77.40;99958.31;5061847;28;20037;-85
2023/07/01 02:25:36;;;;;;;0.10;0.10;;;;;;;15.17;75.95;99956.66;5056609;28;20047;-84
2023/07/01 02:28:01;;;;;;;0.10;0.10;;;;;;;15.36;75.94;99960.47;5038779;28;20403;-85
2023/07/01 02:30:26;;;;;;;0.10;0.10;;;;;;;15.36;75.98;99964.97;5045358;28;20033;-84
2023/07/01 02:32:52;;;;;;;0.10;0.10;;;;;;;15.31;75.85;99962.06;5065522;28;20092;-84
2023/07/01 02:35:17;;;;;;;0.10;0.10;;;;;;;15.26;76.25;99971.47;5065776;28;20361;-85
2023/07/01 02:37:42;;;;;;;0.10;0.10;;;;;;;15.16;76.03;99962.16;5042870;28;20026;-85
2023/07/01 02:40:08;;;;;;;0.10;0.10;;;;;;;15.07;76.05;99962.34;5060191;28;20548;-83
2023/07/01 02:42:34;;;;;;;0.10;0.10;;;;;;;14.97;77.76;99961.88;5043528;28;20029;-85
2023/07/01 02:44:59;;;;;;;0.10;0.10;;;;;;;14.90;76.64;99962.81;5060070;28;20033;-84
2023/07/01 02:47:24;;;;;;;0.10;0.10;;;;;;;14.86;76.87;99954.41;5051138;28;20097;-83
2023/07/01 02:49:50;;;;;;;0.10;0.10;;;;;;;14.86;76.57;99960.56;5049270;28;20072;-84
2023/07/01 02:52:17;;;;;;;0.20;0.20;;;;;;;14.89;75.73;99961.19;5034347;28;20112;-86
2023/07/01 02:54:42;;;;;;;0.10;0.10;;;;;;;14.91;75.46;99959.97;5059944;28;20489;-84
2023/07/01 02:57:09;;;;;;;0.10;0.10;;;;;;;14.96;75.46;99968.19;5040718;28;20056;-84
2023/07/01 02:59:38;;;;;;;0.10;0.10;;;;;;;15.04;75.48;99969.88;5040073;28;20036;-84
2023/07/01 03:02:04;;;;;;;0.15;0.15;;;;;;;15.04;76.75;99967.22;5058072;28;20055;-83
2023/07/01 03:04:30;;;;;;;0.10;0.10;;;;;;;15.14;76.39;99974.88;5036949;28;20596;-83
2023/07/01 03:06:56;;;;;;;0.20;0.20;;;;;;;15.20;76.98;99966.09;5027538;28;20033;-85
2023/07/01 03:09:22;;;;;;;0.10;0.10;;;;;;;15.25;80.21;99971.66;5047890;28;20105;-83
2023/07/01 03:11:48;;;;;;;0.15;0.15;;;;;;;15.31;80.07;99972.72;5031742;28;20112;-83
2023/07/01 03:14:13;;;;;;;0.10;0.10;;;;;;;15.36;81.40;99968.44;5031679;28;20112;-84
2023/07/01 03:16:41;;;;;;;0.10;0.10;;;;;;;15.41;81.56;99973.19;5053662;28;20033;-83
2023/07/01 03:19:06;;;;;;;0.10;0.10;;;;;;;15.45;81.66;99972.59;5033043;28;20033;-83
2023/07/01 03:21:33;;;;;;;0.20;0.20;;;;;;;15.52;81.12;99975.31;5057246;28;20083;-84
2023/07/01 03:23:58;;;;;;;0.10;0.10;;;;;;;15.58;81.87;99979.00;5057182;28;20033;-84
2023/07/01 03:26:23;;;;;;;0.10;0.10;;;;;;;15.61;82.93;99973.28;5038565;28;20060;-83
2023/07/01 03:28:49;;;;;;;0.10;0.10;;;;;;;15.64;83.31;99987.03;5057994;28;20053;-83
2023/07/01 03:31:14;;;;;;;0.20;0.20;;;;;;;15.65;82.58;99980.69;5057930;28;20040;-85
2023/07/01 03:33:40;;;;;;;0.10;0.10;;;;;;;15.66;85.32;99981.50;5056177;28;20033;-83
2023/07/01 03:36:06;;;;;;;0.10;0.10;;;;;;;15.68;85.15;99980.31;5049722;28;20401;-83
2023/07/01 03:38:31;;;;;;;0.10;0.10;;;;;;;15.68;85.96;99974.13;5063644;28;20225;-86
2023/07/01 03:40:56;;;;;;;0.10;0.10;;;;;;;15.72;85.29;99975.41;5048014;28;20099;-84
2023/07/01 03:43:22;;;;;;;0.10;0.10;;;;;;;15.75;84.88;99964.34;5036584;28;20709;-84
2023/07/01 03:45:47;;;;;;;0.10;0.10;;;;;;;15.75;85.21;99961.69;5045205;28;20278;-83
2023/07/01 03:48:12;;;;;;;0.10;0.10;;;;;;;15.80;84.26;99961.94;5049451;28;20033;-83
2023/07/01 03:50:38;;;;;;;0.10;0.10;;;;;;;15.81;84.92;99960.91;5062715;28;20064;-85
2023/07/01 03:53:03;;;;;;;0.10;0.10;;;;;;;15.83;84.87;99968.72;5031753;28;20367;-86
2023/07/01 03:55:28;;;;;;;0.10;0.10;;;;;;;15.83;85.71;99961.53;5031153;28;20083;-85
2023/07/01 03:57:54;;;;;;;0.10;0.10;;;;;;;15.86;85.34;99961.13;5028717;28;20407;-85
2023/07/01 04:00:19;;;;;;;0.10;0.10;;;;;;;15.90;85.42;99967.69;5042120;28;20276;-84
2023/07/01 04:02:49;;;;;;;0.15;0.15;;;;;;;15.93;85.57;99972.63;5051778;28;20037;-85
2023/07/01 04:05:15;;;;;;;0.10;0.10;;;;;;;15.95;86.16;99972.44;5045715;28;20592;-84
2023/07/01 04:07:42;;;;;;;0.10;0.10;;;;;;;15.93;86.81;99969.13;5050958;28;20114;-86
2023/07/01 04:10:08;;;;;;;0.10;0.10;;;;;;;15.95;86.33;99964.44;5037768;28;20033;-84
2023/07/01 04:12:35;;;;;;;0.10;0.10;;;;;;;15.96;86.62;99967.91;5031389;28;20075;-84
2023/07/01 04:15:01;;;;;;;0.10;0.10;;;;;;;15.97;87.01;99962.41;5032666;28;20053;-85
2023/07/01 04:17:26;;;;;;;0.10;0.10;;;;;;;16.03;86.29;99972.25;5033808;28;20454;-85
2023/07/01 04:19:52;;;;;;;0.10;0.10;;;;;;;16.09;85.43;99963.44;5048182;28;20494;-85
2023/07/01 04:22:18;;;;;;;0.10;0.10;;;;;;;16.13;85.18;99958.50;5033096;28;20124;-85
2023/07/01 04:24:44;;;;;;;0.10;0.10;;;;;;;16.19;84.75;99954.25;5053196;28;20394;-84
2023/07/01 04:27:09;;;;;;;0.10;0.10;;;;;;;16.18;84.05;99960.56;5053309;28;20039;-85
2023/07/01 04:29:34;;;;;;;0.10;0.10;;;;;;;16.21;83.33;99955.69;5035067;28;20610;-85
2023/07/01 04:31:59;;;;;;;0.10;0.10;;;;;;;16.26;82.14;99958.56;5024607;28;20280;-84
2023/07/01 04:34:25;;;;;;;0.10;0.10;;;;;;;16.31;81.86;99957.94;5030200;28;20304;-86
2023/07/01 04:36:50;;;;;;;0.10;0.10;;;;;;;16.34;81.46;99957.53;5028189;28;20275;-85
2023/07/01 04:39:15;;;;;;;0.10;0.10;;;;;;;16.37;81.03;99957.13;5052425;28;20021;-84
2023/07/01 04:41:40;;;;;;;0.10;0.10;;;;;;;16.44;80.16;99967.81;5034723;28;20108;-85
2023/07/01 04:44:06;;;;;;;0.10;0.10;;;;;;;16.48;79.72;99958.38;5058584;28;20048;-86
2023/07/01 04:46:32;;;;;;;0.10;0.10;;;;;;;16.55;77.48;99960.00;5047342;28;20055;-84
2023/07/01 04:48:59;;;;;;;0.10;0.10;;;;;;;16.73;78.11;99961.22;5065637;28;20029;-85
2023/07/01 04:51:25;;;;;;;0.10;0.10;;;;;;;16.88;76.33;99950.41;5039394;28;20030;-85
2023/07/01 04:53:50;;;;;;;0.10;0.10;;;;;;;17.01;75.46;99950.34;5065461;28;20498;-84
2023/07/01 04:56:16;;;;;;;0.10;0.10;;;;;;;17.21;75.07;99950.34;5031229;28;20035;-86
2023/07/01 04:58:41;;;;;;;0.10;0.10;;;;;;;17.38;74.54;99964.88;5025921;28;20441;-85
2023/07/01 05:01:07;;;;;;;0.10;0.10;;;;;;;17.59;73.96;99949.56;5043813;28;20029;-85
2023/07/01 05:03:32;;;;;;;0.10;0.10;;;;;;;17.68;72.70;99942.16;5041051;28;20034;-86
2023/07/01 05:05:58;;;;;;;0.10;0.10;;;;;;;17.76;71.91;99955.28;5022467;28;20071;-86
2023/07/01 05:08:23;;;;;;;0.10;0.10;;;;;;;17.80;71.04;99945.78;5052218;28;20037;-85
2023/07/01 05:10:48;;;;;;;0.10;0.10;;;;;;;17.88;70.75;99944.78;5048349;28;20112;-84
2023/07/01 05:13:14;;;;;;;0.10;0.10;;;;;;;17.96;70.36;99937.28;5064509;28;20021;-84
2023/07/01 05:15:39;;;;;;;0.10;0.10;;;;;;;17.93;69.68;99932.38;5065691;28;20060;-84
2023/07/01 05:18:05;;;;;;;0.10;0.10;;;;;;;18.03;69.95;99938.06;5063840;28;20518;-85
2023/07/01 05:20:30;;;;;;;0.10;0.10;;;;;;;17.99;69.23;99939.53;5062734;28;20308;-84
2023/07/01 05:22:55;;;;;;;0.10;0.10;;;;;;;17.96;69.09;99941.84;5043422;28;20025;-85
2023/07/01 05:25:21;;;;;;;0.10;0.10;;;;;;;17.91;69.13;99947.00;5055023;28;20037;-83
2023/07/01 05:27:46;;;;;;;0.10;0.10;;;;;;;17.84;69.37;99939.00;5049913;28;20487;-84
2023/07/01 05:30:11;;;;;;;0.10;0.10;;;;;;;17.75;69.85;99941.06;5009000;28;20038;-83
2023/07/01 05:32:37;;;;;;;0.10;0.10;;;;;;;17.77;70.45;99941.69;5046434;28;20041;-85
2023/07/01 05:35:02;;;;;;;0.10;0.10;;;;;;;17.86;70.48;99936.94;5037524;28;20033;-84
2023/07/01 05:37:28;;;;;;;0.10;0.10;;;;;;;17.88;71.06;99942.91;5041060;28;20604;-84
2023/07/01 05:39:53;;;;;;;0.10;0.10;;;;;;;17.96;70.98;99944.50;5035586;28;20436;-85
2023/07/01 05:42:18;;;;;;;0.10;0.10;;;;;;;18.02;70.94;99946.34;5056588;28;20028;-85
2023/07/01 05:44:44;;;;;;;0.10;0.10;;;;;;;18.05;70.89;99940.56;5047991;28;20043;-84
2023/07/01 05:47:09;;;;;;;0.10;0.10;;;;;;;18.22;70.82;99938.19;5058032;28;20036;-84
2023/07/01 05:49:35;;;;;;;0.10;0.10;;;;;;;18.35;70.19;99943.44;5058871;28;20837;-85
2023/07/01 05:52:00;;;;;;;0.10;0.10;;;;;;;18.38;70.25;99943.00;5057773;28;20076;-83
2023/07/01 05:54:25;;;;;;;0.10;0.10;;;;;;;18.63;68.47;99934.16;5053944;28;20035;-85
2023/07/01 05:56:50;;;;;;;0.10;0.10;;;;;;;18.93;67.05;99942.38;5028244;28;20047;-83
2023/07/01 05:59:16;;;;;;;0.10;0.10;;;;;;;19.18;66.10;99944.19;5034729;28;20287;-83
2023/07/01 06:01:41;;;;;;;0.10;0.10;;;;;;;19.42;64.87;99943.28;5051167;28;20305;-87
2023/07/01 06:04:06;;;;;;;0.10;0.10;;;;;;;19.74;64.59;99943.13;5032931;28;20083;-84
2023/07/01 06:06:32;;;;;;;0.10;0.10;;;;;;;20.08;63.43;99940.81;5037813;28;20122;-83
2023/07/01 06:08:57;;;;;;;0.10;0.10;;;;;;;20.30;62.50;99955.34;5038089;28;20033;-83
2023/07/01 06:11:23;;;;;;;0.10;0.10;;;;;;;20.51;60.86;99945.94;5048669;28;20449;-85
2023/07/01 06:13:48;;;;;;;0.10;0.10;;;;;;;20.69;59.48;99941.53;5049867;28;20056;-83
2023/07/01 06:16:14;;;;;;;0.10;0.10;;;;;;;20.81;59.59;99949.59;5048988;28;20025;-85
2023/07/01 06:18:40;;;;;;;0.10;0.10;;;;;;;21.07;58.97;99946.47;5035559;28;20267;-83
2023/07/01 06:21:06;;;;;;;0.03;0.03;;;;;;;21.29;58.57;99946.66;5033347;28;20442;-84
2023/07/01 06:23:38;;;;;;;0.08;0.08;;;;;;;21.53;57.32;99942.09;5049760;28;20036;-84
2023/07/01 06:26:04;;;;;;;0.00;0.00;;;;;;;21.71;56.69;99941.06;5033038;28;20176;-85
2023/07/01 06:28:30;;;;;;;0.10;0.10;;;;;;;21.85;54.93;99939.72;5050308;28;20029;-84
2023/07/01 06:30:55;;;;;;;0.10;0.10;;;;;;;22.10;54.80;99933.19;5036948;28;20040;-85
2023/07/01 06:33:20;;;;;;;0.00;0.00;;;;;;;22.31;53.24;99939.78;5026729;28;20029;-86
2023/07/01 06:35:45;;;;;;;0.10;0.10;;;;;;;22.57;53.93;99934.81;5053306;28;20395;-86
2023/07/01 06:38:11;;;;;;;0.10;0.10;;;;;;;22.95;52.92;99928.63;5028269;28;20053;-85
2023/07/01 06:40:37;;;;;;;0.08;0.08;;;;;;;23.10;48.90;99933.47;5049441;28;20279;-86
2023/07/01 06:43:05;;;;;;;0.10;0.10;;;;;;;23.21;47.90;99923.63;5049884;28;20087;-86
2023/07/01 06:45:31;;;;;;;0.00;0.00;;;;;;;23.25;48.41;99930.97;5042034;28;20042;-87
2023/07/01 06:47:57;;;;;;;0.00;0.00;;;;;;;23.37;47.40;99936.25;5022965;28;20386;-86
2023/07/01 06:50:22;;;;;;;0.00;0.00;;;;;;;23.20;47.00;99920.13;5044590;28;20075;-86
2023/07/01 06:52:48;;;;;;;0.00;0.00;;;;;;;23.30;45.86;99928.34;5024097;28;20073;-87
2023/07/01 06:55:16;;;;;;;0.00;0.00;;;;;;;23.38;46.51;99918.97;5050492;28;20021;-87
2023/07/01 06:57:42;;;;;;;0.10;0.10;;;;;;;23.35;45.97;99930.28;5051087;28;20390;-85
2023/07/01 07:00:12;;;;;;;0.00;0.00;;;;;;;23.46;44.43;99923.94;5029301;28;20041;-86
2023/07/01 07:02:38;;;;;;;0.00;0.00;;;;;;;23.40;43.79;99916.03;5023689;28;20048;-89
2023/07/01 07:05:05;;;;;;;0.00;0.00;;;;;;;23.34;44.22;99912.47;5031915;28;20029;-85
2023/07/01 07:07:30;;;;;;;0.00;0.00;;;;;;;23.63;44.41;99917.66;5044704;28;20047;-86
2023/07/01 07:09:56;;;;;;;0.00;0.00;;;;;;;23.71;42.98;99917.19;5049067;28;20496;-86
2023/07/01 07:12:21;;;;;;;0.00;0.00;;;;;;;24.00;43.34;99907.00;5046875;28;20044;-87
2023/07/01 07:14:46;;;;;;;0.00;0.00;;;;;;;24.08;42.29;99921.94;5043247;28;20034;-86
2023/07/01 07:17:12;;;;;;;0.00;0.00;;;;;;;24.49;42.87;99916.91;5024152;28;20033;-85
2023/07/01 07:19:37;;;;;;;0.00;0.00;;;;;;;24.80;40.90;99905.22;5046725;28;20433;-86
2023/07/01 07:22:03;;;;;;;0.00;0.00;;;;;;;24.88;40.10;99909.31;5046760;28;20036;-85
2023/07/01 07:24:28;;;;;;;0.00;0.00;;;;;;;24.75;41.38;99904.38;5023404;28;20045;-85
2023/07/01 07:27:03;;;;;;;0.10;0.10;;;;;;;24.59;39.84;99901.56;5055813;28;20037;-86
2023/07/01 07:29:29;;;;;;;0.00;0.00;;;;;;;24.41;41.35;99906.53;5056887;28;20060;-85
2023/07/01 07:31:56;;;;;;;0.00;0.00;;;;;;;24.56;41.38;99909.41;5062178;28;20084;-85
2023/07/01 07:34:22;;;;;;;0.00;0.00;;;;;;;24.73;40.69;99907.34;5045182;28;20115;-85
2023/07/01 07:36:50;;;;;;;0.00;0.00;;;;;;;24.64;40.89;99914.31;5063736;28;20060;-84
2023/07/01 07:39:16;;;;;;;0.00;0.00;;;;;;;24.70;40.28;99907.06;5047965;28;20083;-85
2023/07/01 07:41:42;;;;;;;0.00;0.00;;;;;;;24.41;40.83;99906.53;5042408;28;20033;-85
2023/07/01 07:44:08;;;;;;;0.00;0.00;;;;;;;24.22;41.38;99906.09;5048901;28;20379;-85
2023/07/01 07:46:35;;;;;;;0.00;0.00;;;;;;;24.55;41.33;99905.03;5050033;28;20052;-84
2023/07/01 07:49:00;;;;;;;0.10;0.10;;;;;;;24.94;41.03;99902.06;5066862;28;20036;-85
2023/07/01 07:51:26;;;;;;;0.00;0.00;;;;;;;24.54;40.41;99890.72;5037745;28;20037;-84
2023/07/01 07:53:51;;;;;;;0.00;0.00;;;;;;;24.95;40.16;99892.84;5045736;28;20029;-85
2023/07/01 07:56:17;;;;;;;0.00;0.00;;;;;;;25.51;39.36;99895.84;5061648;28;20041;-85
2023/07/01 07:58:44;;;;;;;0.00;0.00;;;;;;;25.81;38.47;99888.84;5044630;28;20033;-84
2023/07/01 08:01:10;;;;;;;0.00;0.00;;;;;;;26.30;37.73;99891.09;5042464;28;20033;-84
2023/07/01 08:03:35;;;;;;;0.00;0.00;;;;;;;26.61;37.32;99886.50;5039803;28;20035;-85
2023/07/01 08:06:01;;;;;;;0.00;0.00;;;;;;;26.92;36.94;99888.31;5035378;28;20029;-85
2023/07/01 08:08:26;;;;;;;0.00;0.00;;;;;;;26.97;35.39;99872.84;5054437;28;20918;-85
2023/07/01 08:10:53;;;;;;;0.00;0.00;;;;;;;27.50;35.67;99880.50;5037118;28;20416;-85
2023/07/01 08:13:18;;;;;;;0.00;0.00;;;;;;;27.43;34.92;99875.38;5053160;28;20040;-85
2023/07/01 08:15:44;;;;;;;0.00;0.00;;;;;;;27.28;35.47;99881.69;5050452;28;20028;-84
2023/07/01 08:18:09;;;;;;;0.00;0.00;;;;;;;27.02;35.49;99877.44;5054398;28;20039;-83
2023/07/01 08:20:35;;;;;;;;;;;;;;;27.08;34.86;99869.00;5051025;28;20036;-84
2023/07/01 08:23:00;;;;;;;0.00;0.00;;;;;;;27.42;34.11;99872.97;5054849;28;19931;-83
2023/07/01 08:25:25;;;;;;;0.00;0.00;;;;;;;27.38;34.45;99869.16;5025049;28;20410;-81
2023/07/01 08:27:51;;;;;;;0.00;0.00;;;;;;;27.42;34.73;99862.09;5055047;28;20401;-83
2023/07/01 08:30:16;;;;;;;0.00;0.00;;;;;;;27.37;35.16;99859.41;5033020;28;20419;-83
2023/07/01 08:32:41;;;;;;;0.00;0.00;;;;;;;27.61;34.44;99862.25;5034763;28;20402;-82
2023/07/01 08:35:08;;;;;;;0.00;0.00;;;;;;;27.47;34.43;99853.91;5053490;28;20401;-82
2023/07/01 08:37:34;;;;;;;0.00;0.00;;;;;;;27.08;34.33;99851.91;5031713;28;20413;-82
2023/07/01 08:39:59;;;;;;;0.00;0.00;;;;;;;27.19;34.17;99847.25;5054437;28;20444;-83
2023/07/01 08:42:35;;;;;;;0.00;0.00;;;;;;;27.27;35.58;99847.50;5050431;28;20409;-83
2023/07/01 08:45:02;;;;;;;0.00;0.00;;;;;;;27.74;34.07;99850.75;5047134;28;20437;-83
2023/07/01 08:47:28;;;;;;;0.00;0.00;;;;;;;27.98;32.90;99845.44;5045280;28;20704;-82
2023/07/01 08:49:57;;;;;;;0.00;0.00;;;;;;;28.64;32.95;99848.66;5063934;28;20396;-83
2023/07/01 08:52:27;;;;;;;0.00;0.00;;;;;;;28.62;32.19;99839.97;5035358;28;20458;-82
2023/07/01 08:54:53;;;;;;;0.00;0.00;;;;;;;28.00;32.34;99840.53;5054383;28;20424;-83
2023/07/01 08:57:19;;;;;;;0.00;0.00;;;;;;;28.04;33.06;99851.66;5051993;28;20389;-83
2023/07/01 08:59:47;;;;;;;0.00;0.00;;;;;;;27.63;32.62;99846.50;5053146;28;20762;-82
2023/07/01 09:02:13;;;;;;;0.00;0.00;;;;;;;27.79;33.78;99841.75;5027882;28;20463;-82
2023/07/01 09:04:38;;;;;;;0.00;0.00;;;;;;;27.99;33.02;99833.47;5047270;28;20788;-82
2023/07/01 09:07:05;;;;;;;0.00;0.00;;;;;;;27.70;33.47;99828.78;5052345;28;20420;-83
2023/07/01 09:09:30;;;;;;;0.00;0.00;;;;;;;28.06;33.74;99828.53;5052129;28;21155;-82
2023/07/01 09:11:55;;;;;;;0.00;0.00;;;;;;;27.65;33.63;99820.66;5044041;28;20397;-82
2023/07/01 09:14:21;;;;;;;0.00;0.00;;;;;;;27.22;34.10;99819.56;5050462;28;20894;-82
2023/07/01 09:16:47;;;;;;;0.00;0.00;;;;;;;26.90;36.48;99820.78;5043432;28;20393;-82
2023/07/01 09:19:16;;;;;;;0.00;0.00;;;;;;;26.83;35.42;99822.97;5051115;28;20397;-83
2023/07/01 09:21:42;;;;;;;0.00;0.00;;;;;;;26.54;35.43;99815.47;5051556;28;20402;-82
2023/07/01 09:24:10;;;;;;;0.00;0.00;;;;;;;26.27;38.32;99815.75;5050887;28;20966;-82
2023/07/01 09:26:35;;;;;;;0.00;0.00;;;;;;;26.36;36.20;99821.44;5051359;28;20395;-83
2023/07/01 09:29:10;;;;;;;0.00;0.00;;;;;;;25.83;36.61;99814.38;5034206;28;20492;-83
2023/07/01 09:31:47;;;;;;;0.00;0.00;;;;;;;25.90;37.46;99811.44;5051799;28;20397;-83
2023/07/01 09:34:12;;;;;;;0.00;0.00;;;;;;;25.96;36.70;99815.78;5051430;28;20447;-83
2023/07/01 09:36:37;;;;;;;0.00;0.00;;;;;;;26.34;36.40;99821.72;5064288;28;20403;-83
2023/07/01 09:39:05;;;;;;;0.00;0.00;;;;;;;26.30;37.04;99806.28;5056410;28;20995;-82
2023/07/01 09:41:30;;;;;;;0.00;0.00;;;;;;;26.25;37.41;99812.50;5051434;28;20409;-82
2023/07/01 09:43:58;;;;;;;0.00;0.00;;;;;;;26.68;36.74;99805.66;5051379;28;20406;-82
2023/07/01 09:46:24;;;;;;;0.00;0.00;;;;;;;26.67;36.26;99798.63;5048094;28;20390;-82
2023/07/01 09:48:53;;;;;;;0.00;0.00;;;;;;;26.56;36.61;99801.63;5042830;28;20409;-82
2023/07/01 09:51:24;;;;;;;0.00;0.00;;;;;;;26.68;36.17;99785.88;5027286;28;20425;-83
2023/07/01 09:53:53;;;;;;;0.00;0.00;;;;;;;27.04;35.79;99786.50;5032716;28;20805;-82
2023/07/01 09:56:19;;;;;;;0.00;0.00;;;;;;;27.23;35.43;99781.28;5050577;28;20801;-83
2023/07/01 09:58:45;;;;;;;0.00;0.00;;;;;;;26.94;35.45;99778.44;5024903;28;20389;-82
2023/07/01 10:01:13;;;;;;;0.00;0.00;;;;;;;27.06;35.10;99780.81;5033168;28;20402;-81
2023/07/01 10:03:39;;;;;;;0.00;0.00;;;;;;;26.60;35.19;99779.13;5041913;28;20467;-83
2023/07/01 10:06:05;;;;;;;0.00;0.00;;;;;;;26.31;35.86;99781.59;5043665;28;20399;-81
2023/07/01 10:08:30;;;;;;;0.00;0.00;;;;;;;25.89;36.37;99779.22;5041413;28;20443;-82
2023/07/01 10:11:19;;;;;;;0.00;0.00;;;;;;;25.61;36.59;99781.34;5028782;28;20480;-81
2023/07/01 10:13:51;;;;;;;0.00;0.00;;;;;;;25.18;37.64;99788.84;5043379;28;20390;-83
2023/07/01 10:16:17;;;;;;;0.00;0.00;;;;;;;25.41;37.58;99788.34;5050139;28;20397;-82
2023/07/01 10:18:42;;;;;;;0.00;0.00;;;;;;;25.53;37.38;99788.09;5031822;28;20406;-82
2023/07/01 10:21:23;;;;;;;0.00;0.00;;;;;;;25.55;37.40;99785.94;5032886;28;20393;-82
2023/07/01 10:23:52;;;;;;;0.00;0.00;;;;;;;25.36;38.30;99791.06;5033165;28;20815;-81
2023/07/01 10:26:35;;;;;;;0.00;0.00;;;;;;;25.11;38.03;99790.97;5053184;28;20434;-81
2023/07/01 10:29:26;;;;;;;0.00;0.00;;;;;;;25.15;38.48;99792.88;5040952;28;20406;-81
2023/07/01 10:32:26;;;;;;;0.00;0.00;;;;;;;25.18;38.86;99794.25;5042355;28;20393;-82
2023/07/01 10:34:55;;;;;;;0.00;0.00;;;;;;;24.99;39.13;99791.19;4947039;28;20904;-82
2023/07/01 10:37:23;;;;;;;0.00;0.00;;;;;;;24.82;39.44;99791.41;5033688;28;20399;-82
2023/07/01 10:39:48;;;;;;;0.00;0.00;;;;;;;24.76;40.44;99792.44;5051813;28;20393;-82
2023/07/01 10:42:33;;;;;;;0.00;0.00;;;;;;;24.49;40.93;99784.47;5033154;28;20917;-82
2023/07/01 10:45:11;;;;;;;0.00;0.00;;;;;;;24.53;41.17;99791.00;5055699;28;20413;-81
2023/07/01 10:47:59;;;;;;;0.00;0.00;;;;;;;24.67;41.31;99797.56;5054303;28;20404;-83
2023/07/01 10:50:24;;;;;;;0.00;0.00;;;;;;;24.90;41.40;99793.56;5052148;28;20408;-81
2023/07/01 10:52:55;;;;;;;0.00;0.00;;;;;;;25.03;41.12;99786.88;5054415;28;20449;-83
2023/07/01 10:55:46;;;;;;;0.00;0.00;;;;;;;24.98;40.86;99790.38;5042010;28;20759;-82
2023/07/01 10:58:21;;;;;;;0.00;0.00;;;;;;;24.78;41.02;99790.28;5041745;28;20407;-82
2023/07/01 11:00:50;;;;;;;0.00;0.00;;;;;;;24.68;41.47;99791.06;5045626;28;20502;-82
2023/07/01 11:03:34;;;;;;;0.00;0.00;;;;;;;24.93;41.41;99793.06;5030906;28;20502;-82
2023/07/01 11:06:02;;;;;;;0.00;0.00;;;;;;;25.03;42.31;99795.00;5043321;28;20930;-81
2023/07/01 11:08:29;;;;;;;0.00;0.00;;;;;;;25.23;40.52;99791.56;5029212;28;20390;-83
2023/07/01 11:10:54;;;;;;;0.00;0.00;;;;;;;25.49;40.92;99787.00;5054749;28;20404;-82
2023/07/01 11:13:20;;;;;;;0.00;0.00;;;;;;;25.60;39.88;99772.41;5038897;28;20419;-81
2023/07/01 11:16:10;;;;;;;0.00;0.00;;;;;;;25.75;40.08;99781.63;5036116;28;20401;-82
2023/07/01 11:18:40;;;;;;;0.00;0.00;;;;;;;25.93;40.32;99778.38;5055245;28;20443;-82
2023/07/01 11:21:06;;;;;;;0.00;0.00;;;;;;;26.09;40.12;99783.81;5053655;28;20415;-82
2023/07/01 11:23:31;;;;;;;0.00;0.00;;;;;;;25.82;39.71;99784.88;5054154;28;20954;-82
2023/07/01 11:25:56;;;;;;;0.00;0.00;;;;;;;26.01;40.21;99787.88;5054579;28;20404;-81
2023/07/01 11:28:35;;;;;;;0.00;0.00;;;;;;;26.40;40.34;99773.72;5053560;28;20438;-81
2023/07/01 11:31:21;;;;;;;0.00;0.00;;;;;;;26.20;39.76;99775.38;5056532;28;20460;-81
2023/07/01 11:33:54;;;;;;;0.00;0.00;;;;;;;26.07;40.39;99770.53;5048956;28;20403;-81
2023/07/01 11:36:30;;;;;;;0.00;0.00;;;;;;;26.27;40.11;99778.63;5052600;28;20400;-81
2023/07/01 11:38:56;;;;;;;0.00;0.00;;;;;;;25.84;41.19;99778.09;5027484;28;20403;-81